createdAt,value
2019-04-05T00:00:30.982Z,0.00
2019-04-05T00:01:30.974Z,0.00
2019-04-05T00:02:30.959Z,0.00
2019-04-05T00:03:30.952Z,0.00
2019-04-05T00:04:30.938Z,0.00
2019-04-05T00:05:30.924Z,0.00
2019-04-05T00:06:30.952Z,0.00
2019-04-05T00:07:30.900Z,0.00
2019-04-05T00:08:30.892Z,0.00
2019-04-05T00:09:30.882Z,0.00
2019-04-05T00:10:30.870Z,0.00
2019-04-05T00:11:30.886Z,0.00
2019-04-05T00:12:30.848Z,0.00
2019-04-05T00:13:30.840Z,0.00
2019-04-05T00:14:30.822Z,0.00
2019-04-05T00:15:30.836Z,0.00
2019-04-05T00:16:30.808Z,0.00
2019-04-05T00:17:30.824Z,0.00
2019-04-05T00:18:30.784Z,0.00
2019-04-05T00:19:30.783Z,0.00
2019-04-05T00:20:30.759Z,0.00
2019-04-05T00:21:30.748Z,0.00
2019-04-05T00:22:30.734Z,0.00
2019-04-05T00:23:30.769Z,0.00
2019-04-05T00:24:30.720Z,0.00
2019-04-05T00:25:30.703Z,0.00
2019-04-05T00:26:30.698Z,0.00
2019-04-05T00:27:30.689Z,0.00
2019-04-05T00:28:30.677Z,0.00
2019-04-05T00:29:30.686Z,0.00
2019-04-05T00:30:30.649Z,0.00
2019-04-05T00:31:30.645Z,0.00
2019-04-05T00:32:31.592Z,0.00
2019-04-05T00:33:30.625Z,0.00
2019-04-05T00:34:30.608Z,0.00
2019-04-05T00:35:30.621Z,0.00
2019-04-05T00:36:30.579Z,0.00
2019-04-05T00:37:30.580Z,0.00
2019-04-05T00:38:30.559Z,0.00
2019-04-05T00:39:30.552Z,0.00
2019-04-05T00:40:30.574Z,0.00
2019-04-05T00:41:32.949Z,0.00
2019-04-05T00:42:30.549Z,0.00
2019-04-05T00:43:30.514Z,0.00
2019-04-05T00:44:30.499Z,0.00
2019-04-05T00:45:30.498Z,0.00
2019-04-05T00:46:30.475Z,0.00
2019-04-05T00:47:30.484Z,0.00
2019-04-05T00:48:30.457Z,0.00
2019-04-05T00:49:30.442Z,0.00
2019-04-05T00:50:30.426Z,0.00
2019-04-05T00:52:29.436Z,0.00
2019-04-05T00:53:30.394Z,0.00
2019-04-05T00:54:30.384Z,0.00
2019-04-05T00:55:30.383Z,0.00
2019-04-05T00:56:30.370Z,0.00
2019-04-05T00:57:30.359Z,0.00
2019-04-05T00:58:30.345Z,0.00
2019-04-05T00:59:30.329Z,0.00
2019-04-05T01:00:30.322Z,0.00
2019-04-05T01:01:30.318Z,0.00
2019-04-05T01:02:30.297Z,0.00
2019-04-05T01:03:30.329Z,0.00
2019-04-05T01:04:30.279Z,0.00
2019-04-05T01:05:30.272Z,0.00
2019-04-05T01:06:30.260Z,0.00
2019-04-05T01:07:30.242Z,0.00
2019-04-05T01:08:30.237Z,0.00
2019-04-05T01:09:30.219Z,0.00
2019-04-05T01:10:30.228Z,0.00
2019-04-05T01:11:30.207Z,0.00
2019-04-05T01:12:32.005Z,0.00
2019-04-05T01:13:30.175Z,0.00
2019-04-05T01:14:30.170Z,0.00
2019-04-05T01:15:40.158Z,0.00
2019-04-05T01:16:30.148Z,0.00
2019-04-05T01:17:30.134Z,0.00
2019-04-05T01:18:33.048Z,0.00
2019-04-05T01:19:30.114Z,0.00
2019-04-05T01:20:30.127Z,0.00
2019-04-05T01:21:30.094Z,0.00
2019-04-05T01:22:30.085Z,0.00
2019-04-05T01:23:30.071Z,0.00
2019-04-05T01:24:30.055Z,0.00
2019-04-05T01:25:30.059Z,0.00
2019-04-05T01:26:30.039Z,0.00
2019-04-05T01:27:30.027Z,0.00
2019-04-05T01:28:30.079Z,0.00
2019-04-05T01:29:30.000Z,0.00
2019-04-05T01:30:29.993Z,0.00
2019-04-05T01:31:32.546Z,0.00
2019-04-05T01:32:32.543Z,0.00
2019-04-05T01:33:29.972Z,0.00
2019-04-05T01:34:29.985Z,0.00
2019-04-05T01:35:29.939Z,0.00
2019-04-05T01:36:29.936Z,0.00
2019-04-05T01:37:29.933Z,0.00
2019-04-05T01:38:29.901Z,0.00
2019-04-05T01:39:29.891Z,0.00
2019-04-05T01:40:29.905Z,0.00
2019-04-05T01:41:29.873Z,0.00
2019-04-05T01:42:29.874Z,0.00
2019-04-05T01:43:29.846Z,0.00
2019-04-05T01:44:29.847Z,0.00
2019-04-05T01:45:29.839Z,0.00
2019-04-05T01:46:29.817Z,0.00
2019-04-05T01:47:29.805Z,0.00
2019-04-05T01:48:29.789Z,0.00
2019-04-05T01:49:29.780Z,0.00
2019-04-05T01:50:29.885Z,0.00
2019-04-05T01:51:29.775Z,0.00
2019-04-05T01:52:29.754Z,0.00
2019-04-05T01:53:29.745Z,0.00
2019-04-05T01:54:29.722Z,0.00
2019-04-05T01:55:29.721Z,36.00
2019-04-05T01:56:29.729Z,44.00
2019-04-05T01:57:29.694Z,44.00
2019-04-05T01:58:29.689Z,44.00
2019-04-05T01:59:29.685Z,44.00
2019-04-05T02:00:29.665Z,44.00
2019-04-05T02:01:29.655Z,36.00
2019-04-05T02:02:29.663Z,44.00
2019-04-05T02:03:30.543Z,36.00
2019-04-05T02:04:29.619Z,32.00
2019-04-05T02:05:29.607Z,32.00
2019-04-05T02:06:29.599Z,32.00
2019-04-05T02:07:29.591Z,32.00
2019-04-05T02:08:29.599Z,32.00
2019-04-05T02:09:29.563Z,32.00
2019-04-05T02:10:29.564Z,32.00
2019-04-05T02:11:29.545Z,0.00
2019-04-05T02:12:29.533Z,0.00
2019-04-05T02:13:29.525Z,0.00
2019-04-05T02:14:29.551Z,0.00
2019-04-05T02:15:29.539Z,0.00
2019-04-05T02:16:29.489Z,0.00
2019-04-05T02:17:29.475Z,0.00
2019-04-05T02:18:29.460Z,0.00
2019-04-05T02:19:29.469Z,0.00
2019-04-05T02:20:29.444Z,0.00
2019-04-05T02:21:29.435Z,0.00
2019-04-05T02:22:29.421Z,0.00
2019-04-05T02:23:29.416Z,0.00
2019-04-05T02:24:29.403Z,0.00
2019-04-05T02:25:29.417Z,0.00
2019-04-05T02:26:29.383Z,0.00
2019-04-05T02:27:29.363Z,0.00
2019-04-05T02:28:29.357Z,0.00
2019-04-05T02:29:29.353Z,0.00
2019-04-05T02:30:29.381Z,0.00
2019-04-05T02:31:29.381Z,0.00
2019-04-05T02:32:29.313Z,0.00
2019-04-05T02:33:29.300Z,0.00
2019-04-05T02:34:29.286Z,0.00
2019-04-05T02:35:29.278Z,0.00
2019-04-05T02:36:29.390Z,0.00
2019-04-05T02:37:29.265Z,0.00
2019-04-05T02:38:29.237Z,0.00
2019-04-05T02:39:29.233Z,0.00
2019-04-05T02:40:29.221Z,0.00
2019-04-05T02:41:29.235Z,0.00
2019-04-05T02:42:29.223Z,0.00
2019-04-05T02:43:29.197Z,0.00
2019-04-05T02:44:29.177Z,0.00
2019-04-05T02:45:29.166Z,0.00
2019-04-05T02:46:29.162Z,0.00
2019-04-05T02:47:29.151Z,0.00
2019-04-05T02:48:29.157Z,0.00
2019-04-05T02:49:29.132Z,0.00
2019-04-05T02:50:29.175Z,0.00
2019-04-05T02:51:29.103Z,0.00
2019-04-05T02:52:29.093Z,0.00
2019-04-05T02:53:29.078Z,0.00
2019-04-05T02:54:29.083Z,0.00
2019-04-05T02:55:29.056Z,0.00
2019-04-05T02:56:29.036Z,0.00
2019-04-05T02:57:29.047Z,0.00
2019-04-05T02:58:29.026Z,0.00
2019-04-05T02:59:29.016Z,0.00
2019-04-05T03:00:29.023Z,0.00
2019-04-05T03:01:28.980Z,0.00
2019-04-05T03:02:28.977Z,0.00
2019-04-05T03:03:28.973Z,0.00
2019-04-05T03:04:28.962Z,0.00
2019-04-05T03:05:28.965Z,0.00
2019-04-05T03:06:28.974Z,0.00
2019-04-05T03:07:28.913Z,0.00
2019-04-05T03:08:28.926Z,0.00
2019-04-05T03:09:28.902Z,0.00
2019-04-05T03:10:28.903Z,0.00
2019-04-05T03:11:28.884Z,0.00
2019-04-05T03:12:28.885Z,0.00
2019-04-05T03:13:28.852Z,0.00
2019-04-05T03:14:28.844Z,0.00
2019-04-05T03:15:28.829Z,0.00
2019-04-05T03:16:40.174Z,0.00
2019-04-05T03:17:28.807Z,0.00
2019-04-05T03:18:28.831Z,0.00
2019-04-05T03:19:28.786Z,0.00
2019-04-05T03:20:29.578Z,0.00
2019-04-05T03:21:28.762Z,0.00
2019-04-05T03:22:28.758Z,0.00
2019-04-05T03:23:28.780Z,0.00
2019-04-05T03:24:28.729Z,0.00
2019-04-05T03:25:28.743Z,0.00
2019-04-05T03:26:28.707Z,0.00
2019-04-05T03:27:28.707Z,0.00
2019-04-05T03:28:28.688Z,0.00
2019-04-05T03:29:28.682Z,0.00
2019-04-05T03:30:28.689Z,0.00
2019-04-05T03:31:29.549Z,0.00
2019-04-05T03:32:31.511Z,0.00
2019-04-05T03:33:28.635Z,0.00
2019-04-05T03:34:31.522Z,0.00
2019-04-05T03:35:28.616Z,0.00
2019-04-05T03:36:28.666Z,0.00
2019-04-05T03:37:28.588Z,0.00
2019-04-05T03:38:28.591Z,0.00
2019-04-05T03:39:28.572Z,0.00
2019-04-05T03:40:28.569Z,0.00
2019-04-05T03:42:27.588Z,0.00
2019-04-05T03:43:28.518Z,0.00
2019-04-05T03:44:28.525Z,0.00
2019-04-05T03:45:28.504Z,0.00
2019-04-05T03:46:29.004Z,0.00
2019-04-05T03:47:28.509Z,0.00
2019-04-05T03:48:28.467Z,0.00
2019-04-05T03:49:28.473Z,0.00
2019-04-05T03:50:28.488Z,0.00
2019-04-05T03:51:28.431Z,0.00
2019-04-05T03:52:28.433Z,0.00
2019-04-05T03:53:28.414Z,0.00
2019-04-05T03:54:28.401Z,0.00
2019-04-05T03:55:28.389Z,0.00
2019-04-05T03:56:28.416Z,0.00
2019-04-05T03:57:28.368Z,0.00
2019-04-05T03:58:28.353Z,0.00
2019-04-05T04:00:27.336Z,0.00
2019-04-05T04:01:28.324Z,0.00
2019-04-05T04:02:28.346Z,0.00
2019-04-05T04:03:28.304Z,0.00
2019-04-05T04:04:28.300Z,0.00
2019-04-05T04:05:28.285Z,0.00
2019-04-05T04:06:28.275Z,0.00
2019-04-05T04:07:29.007Z,0.00
2019-04-05T04:08:28.253Z,4.00
2019-04-05T04:09:28.246Z,4.00
2019-04-05T04:11:27.291Z,4.00
2019-04-05T04:12:28.203Z,4.00
2019-04-05T04:13:28.215Z,8.00
2019-04-05T04:14:28.188Z,4.00
2019-04-05T04:15:28.176Z,8.00
2019-04-05T04:16:28.158Z,8.00
2019-04-05T04:17:28.152Z,4.00
2019-04-05T04:18:28.135Z,8.00
2019-04-05T04:19:28.153Z,8.00
2019-04-05T04:20:28.130Z,8.00
2019-04-05T04:21:28.116Z,12.00
2019-04-05T04:22:28.098Z,16.00
2019-04-05T04:23:28.090Z,16.00
2019-04-05T04:24:28.085Z,20.00
2019-04-05T04:25:28.093Z,24.00
2019-04-05T04:26:28.056Z,28.00
2019-04-05T04:27:28.052Z,36.00
2019-04-05T04:28:28.038Z,36.00
2019-04-05T04:29:28.023Z,40.00
2019-04-05T04:30:28.011Z,44.00
2019-04-05T04:31:28.020Z,48.00
2019-04-05T04:32:27.986Z,52.00
2019-04-05T04:33:27.972Z,60.00
2019-04-05T04:34:27.971Z,68.00
2019-04-05T04:35:27.953Z,80.00
2019-04-05T04:36:27.944Z,88.00
2019-04-05T04:37:27.953Z,96.00
2019-04-05T04:38:27.930Z,104.00
2019-04-05T04:39:27.913Z,108.00
2019-04-05T04:40:27.909Z,112.00
2019-04-05T04:41:30.161Z,124.00
2019-04-05T04:42:27.926Z,128.00
2019-04-05T04:43:27.888Z,128.00
2019-04-05T04:44:30.494Z,144.00
2019-04-05T04:45:27.842Z,160.00
2019-04-05T04:46:27.832Z,168.00
2019-04-05T04:47:27.821Z,180.00
2019-04-05T04:48:27.827Z,192.00
2019-04-05T04:49:27.817Z,212.00
2019-04-05T04:50:30.486Z,232.00
2019-04-05T04:51:27.779Z,232.00
2019-04-05T04:52:27.770Z,232.00
2019-04-05T04:53:27.774Z,220.00
2019-04-05T04:54:27.758Z,224.00
2019-04-05T04:55:27.730Z,244.00
2019-04-05T04:56:27.721Z,276.00
2019-04-05T04:57:27.715Z,320.00
2019-04-05T04:58:27.703Z,356.00
2019-04-05T04:59:30.483Z,388.00
2019-04-05T05:00:27.680Z,400.00
2019-04-05T05:01:27.692Z,412.00
2019-04-05T05:02:27.664Z,420.00
2019-04-05T05:03:27.649Z,428.00
2019-04-05T05:05:26.648Z,440.00
2019-04-05T05:06:27.613Z,448.00
2019-04-05T05:07:27.604Z,460.00
2019-04-05T05:08:27.588Z,496.00
2019-04-05T05:09:27.579Z,540.00
2019-04-05T05:10:27.969Z,592.00
2019-04-05T05:11:27.559Z,644.00
2019-04-05T05:12:27.553Z,668.00
2019-04-05T05:13:27.548Z,692.00
2019-04-05T05:14:27.528Z,692.00
2019-04-05T05:15:27.573Z,672.00
2019-04-05T05:16:27.531Z,668.00
2019-04-05T05:17:37.713Z,692.00
2019-04-05T05:18:27.479Z,736.00
2019-04-05T05:19:27.479Z,848.00
2019-04-05T05:20:27.459Z,956.00
2019-04-05T05:21:27.449Z,952.00
2019-04-05T05:22:27.465Z,908.00
2019-04-05T05:23:27.446Z,888.00
2019-04-05T05:24:27.465Z,880.00
2019-04-05T05:25:27.408Z,956.00
2019-04-05T05:27:26.377Z,1136.00
2019-04-05T05:28:27.978Z,1144.00
2019-04-05T05:29:27.385Z,1108.00
2019-04-05T05:30:27.350Z,1040.00
2019-04-05T05:31:27.338Z,976.00
2019-04-05T05:32:27.337Z,948.00
2019-04-05T05:33:27.314Z,956.00
2019-04-05T05:34:27.310Z,1032.00
2019-04-05T05:35:27.316Z,1172.00
2019-04-05T05:36:27.287Z,1260.00
2019-04-05T05:37:27.271Z,1280.00
2019-04-05T05:38:27.975Z,1224.00
2019-04-05T05:39:27.251Z,1212.00
2019-04-05T05:40:34.796Z,1244.00
2019-04-05T05:41:27.234Z,1288.00
2019-04-05T05:42:27.215Z,1360.00
2019-04-05T05:43:27.210Z,1332.00
2019-04-05T05:44:29.975Z,1268.00
2019-04-05T05:45:27.183Z,1244.00
2019-04-05T05:46:27.203Z,1300.00
2019-04-05T05:47:27.161Z,1336.00
2019-04-05T05:48:27.171Z,1388.00
2019-04-05T05:49:27.146Z,1396.00
2019-04-05T05:50:27.129Z,1492.00
2019-04-05T05:51:27.133Z,1604.00
2019-04-05T05:52:27.509Z,1668.00
2019-04-05T05:53:29.978Z,1680.00
2019-04-05T05:54:27.090Z,1660.00
2019-04-05T05:55:29.913Z,1684.00
2019-04-05T05:56:27.065Z,1764.00
2019-04-05T05:57:27.056Z,1772.00
2019-04-05T05:58:27.252Z,1812.00
2019-04-05T05:59:27.715Z,1888.00
2019-04-05T06:00:30.260Z,1892.00
2019-04-05T06:01:27.010Z,1888.00
2019-04-05T06:02:27.005Z,1876.00
2019-04-05T06:03:26.987Z,1960.00
2019-04-05T06:04:27.003Z,2108.00
2019-04-05T06:05:27.469Z,2156.00
2019-04-05T06:06:26.948Z,2084.00
2019-04-05T06:07:26.941Z,2012.00
2019-04-05T06:08:29.229Z,2064.00
2019-04-05T06:09:29.481Z,2096.00
2019-04-05T06:10:26.940Z,1992.00
2019-04-05T06:11:29.471Z,1976.00
2019-04-05T06:12:26.906Z,2076.00
2019-04-05T06:13:26.885Z,2248.00
2019-04-05T06:14:26.878Z,2212.00
2019-04-05T06:15:26.861Z,2188.00
2019-04-05T06:16:26.874Z,2276.00
2019-04-05T06:17:29.464Z,2544.00
2019-04-05T06:18:26.975Z,2520.00
2019-04-05T06:19:26.823Z,2428.00
2019-04-05T06:20:26.804Z,2456.00
2019-04-05T06:21:26.793Z,2392.00
2019-04-05T06:22:28.504Z,2432.00
2019-04-05T06:23:33.628Z,2436.00
2019-04-05T06:24:26.770Z,2492.00
2019-04-05T06:25:26.750Z,2472.00
2019-04-05T06:26:26.735Z,2448.00
2019-04-05T06:27:27.508Z,2448.00
2019-04-05T06:28:26.771Z,2476.00
2019-04-05T06:29:26.701Z,2532.00
2019-04-05T06:30:28.724Z,2540.00
2019-04-05T06:31:26.680Z,2672.00
2019-04-05T06:32:26.696Z,2732.00
2019-04-05T06:33:31.666Z,2820.00
2019-04-05T06:34:26.662Z,2768.00
2019-04-05T06:35:26.633Z,2896.00
2019-04-05T06:36:26.632Z,3196.00
2019-04-05T06:37:26.619Z,3300.00
2019-04-05T06:38:26.609Z,3240.00
2019-04-05T06:39:26.619Z,3216.00
2019-04-05T06:40:39.731Z,3040.00
2019-04-05T06:41:26.568Z,3044.00
2019-04-05T06:42:26.572Z,3228.00
2019-04-05T06:43:26.557Z,3372.00
2019-04-05T06:44:27.944Z,3648.00
2019-04-05T06:45:26.565Z,3656.00
2019-04-05T06:46:29.466Z,3468.00
2019-04-05T06:47:26.504Z,3228.00
2019-04-05T06:48:29.355Z,3132.00
2019-04-05T06:49:26.499Z,3128.00
2019-04-05T06:50:26.508Z,3132.00
2019-04-05T06:51:26.475Z,3076.00
2019-04-05T06:52:26.457Z,2956.00
2019-04-05T06:53:26.439Z,3028.00
2019-04-05T06:54:26.432Z,3156.00
2019-04-05T06:55:26.415Z,3084.00
2019-04-05T06:56:26.424Z,2880.00
2019-04-05T06:57:26.396Z,2804.00
2019-04-05T06:58:28.858Z,2852.00
2019-04-05T06:59:26.376Z,2860.00
2019-04-05T07:00:26.373Z,2772.00
2019-04-05T07:01:26.349Z,2644.00
2019-04-05T07:02:26.382Z,2540.00
2019-04-05T07:03:26.325Z,2476.00
2019-04-05T07:04:26.957Z,2396.00
2019-04-05T07:05:26.315Z,2332.00
2019-04-05T07:06:26.308Z,2348.00
2019-04-05T07:07:26.281Z,2368.00
2019-04-05T07:08:26.299Z,2324.00
2019-04-05T07:09:26.269Z,2196.00
2019-04-05T07:10:26.254Z,2120.00
2019-04-05T07:11:28.956Z,2168.00
2019-04-05T07:12:26.233Z,2388.00
2019-04-05T07:13:27.523Z,2684.00
2019-04-05T07:14:26.259Z,2864.00
2019-04-05T07:15:26.203Z,2856.00
2019-04-05T07:16:26.188Z,2768.00
2019-04-05T07:17:26.184Z,2704.00
2019-04-05T07:18:33.959Z,2640.00
2019-04-05T07:19:26.353Z,2680.00
2019-04-05T07:20:26.138Z,2756.00
2019-04-05T07:21:26.133Z,2856.00
2019-04-05T07:22:36.981Z,2996.00
2019-04-05T07:23:26.121Z,3236.00
2019-04-05T07:24:26.098Z,3216.00
2019-04-05T07:25:29.136Z,2864.00
2019-04-05T07:26:26.080Z,2624.00
2019-04-05T07:27:26.065Z,2852.00
2019-04-05T07:28:26.057Z,3152.00
2019-04-05T07:29:26.072Z,3052.00
2019-04-05T07:30:28.729Z,3036.00
2019-04-05T07:31:27.952Z,3100.00
2019-04-05T07:32:26.057Z,3296.00
2019-04-05T07:33:26.014Z,3492.00
2019-04-05T07:34:25.982Z,3728.00
2019-04-05T07:35:33.366Z,3560.00
2019-04-05T07:36:25.968Z,3580.00
2019-04-05T07:37:25.986Z,4208.00
2019-04-05T07:38:25.948Z,5020.00
2019-04-05T07:39:26.083Z,5492.00
2019-04-05T07:40:25.926Z,5344.00
2019-04-05T07:41:25.910Z,4936.00
2019-04-05T07:42:25.899Z,4652.00
2019-04-05T07:43:25.888Z,4548.00
2019-04-05T07:44:25.879Z,4732.00
2019-04-05T07:45:25.891Z,5332.00
2019-04-05T07:46:25.848Z,5396.00
2019-04-05T07:47:25.859Z,5436.00
2019-04-05T07:48:25.873Z,5068.00
2019-04-05T07:49:25.821Z,4924.00
2019-04-05T07:50:25.988Z,4980.00
2019-04-05T07:51:25.797Z,5116.00
2019-04-05T07:52:25.789Z,5392.00
2019-04-05T07:53:25.788Z,5788.00
2019-04-05T07:54:25.759Z,5916.00
2019-04-05T07:55:25.878Z,5764.00
2019-04-05T07:56:25.746Z,5272.00
2019-04-05T07:57:25.739Z,4868.00
2019-04-05T07:58:25.719Z,4612.00
2019-04-05T07:59:25.735Z,4636.00
2019-04-05T08:00:25.712Z,4972.00
2019-04-05T08:01:25.733Z,5336.00
2019-04-05T08:02:25.690Z,5360.00
2019-04-05T08:03:25.661Z,4672.00
2019-04-05T08:04:25.681Z,3980.00
2019-04-05T08:05:25.656Z,3564.00
2019-04-05T08:06:28.443Z,3288.00
2019-04-05T08:07:25.650Z,3108.00
2019-04-05T08:08:25.611Z,2884.00
2019-04-05T08:09:25.608Z,2752.00
2019-04-05T08:10:25.594Z,2700.00
2019-04-05T08:11:25.584Z,2732.00
2019-04-05T08:12:25.573Z,2824.00
2019-04-05T08:13:25.580Z,2980.00
2019-04-05T08:14:25.562Z,3056.00
2019-04-05T08:15:25.550Z,3064.00
2019-04-05T08:16:25.535Z,3076.00
2019-04-05T08:17:25.522Z,3220.00
2019-04-05T08:18:25.502Z,2840.00
2019-04-05T08:19:25.527Z,4020.00
2019-04-05T08:20:25.607Z,4676.00
2019-04-05T08:21:25.472Z,4388.00
2019-04-05T08:22:25.466Z,3552.00
2019-04-05T08:23:25.455Z,3248.00
2019-04-05T08:24:25.446Z,3276.00
2019-04-05T08:25:25.433Z,3268.00
2019-04-05T08:26:25.444Z,3244.00
2019-04-05T08:27:25.411Z,3176.00
2019-04-05T08:28:25.398Z,3148.00
2019-04-05T08:29:25.390Z,3128.00
2019-04-05T08:30:25.377Z,3024.00
2019-04-05T08:31:25.366Z,2972.00
2019-04-05T08:32:25.387Z,2960.00
2019-04-05T08:33:25.354Z,2944.00
2019-04-05T08:34:25.329Z,2944.00
2019-04-05T08:35:25.324Z,2900.00
2019-04-05T08:36:25.932Z,2808.00
2019-04-05T08:37:25.332Z,2832.00
2019-04-05T08:38:25.301Z,2836.00
2019-04-05T08:39:25.285Z,2840.00
2019-04-05T08:40:25.273Z,2840.00
2019-04-05T08:41:25.251Z,2856.00
2019-04-05T08:42:25.249Z,2896.00
2019-04-05T08:43:25.266Z,2952.00
2019-04-05T08:44:25.223Z,3004.00
2019-04-05T08:46:24.208Z,3016.00
2019-04-05T08:47:25.201Z,3044.00
2019-04-05T08:48:25.174Z,3056.00
2019-04-05T08:49:25.219Z,3040.00
2019-04-05T08:50:25.158Z,3076.00
2019-04-05T08:51:25.155Z,3080.00
2019-04-05T08:52:27.061Z,3088.00
2019-04-05T08:53:25.119Z,3092.00
2019-04-05T08:54:32.474Z,3152.00
2019-04-05T08:55:25.107Z,3172.00
2019-04-05T08:56:25.111Z,3024.00
2019-04-05T08:57:25.079Z,3072.00
2019-04-05T08:58:33.316Z,3148.00
2019-04-05T08:59:25.058Z,3140.00
2019-04-05T09:00:25.098Z,3188.00
2019-04-05T09:01:25.056Z,3228.00
2019-04-05T09:02:25.035Z,3304.00
2019-04-05T09:03:25.927Z,3308.00
2019-04-05T09:04:25.013Z,3356.00
2019-04-05T09:05:24.999Z,3316.00
2019-04-05T09:06:25.022Z,3276.00
2019-04-05T09:07:24.976Z,3292.00
2019-04-05T09:08:24.961Z,3320.00
2019-04-05T09:09:24.958Z,3348.00
2019-04-05T09:10:24.947Z,3324.00
2019-04-05T09:11:24.944Z,3280.00
2019-04-05T09:12:24.937Z,3248.00
2019-04-05T09:13:24.929Z,3216.00
2019-04-05T09:14:24.891Z,3232.00
2019-04-05T09:15:24.876Z,3228.00
2019-04-05T09:16:24.882Z,3216.00
2019-04-05T09:17:24.899Z,3208.00
2019-04-05T09:18:24.853Z,3172.00
2019-04-05T09:19:25.463Z,3124.00
2019-04-05T09:20:24.906Z,3080.00
2019-04-05T09:21:24.819Z,3084.00
2019-04-05T09:22:24.824Z,3116.00
2019-04-05T09:23:24.810Z,3160.00
2019-04-05T09:24:24.800Z,3168.00
2019-04-05T09:25:24.780Z,3128.00
2019-04-05T09:26:24.791Z,3104.00
2019-04-05T09:27:27.424Z,3080.00
2019-04-05T09:28:24.747Z,3084.00
2019-04-05T09:29:24.733Z,3068.00
2019-04-05T09:30:24.755Z,3072.00
2019-04-05T09:31:24.708Z,3144.00
2019-04-05T09:32:24.697Z,3196.00
2019-04-05T09:33:24.684Z,3232.00
2019-04-05T09:34:24.685Z,3248.00
2019-04-05T09:35:24.665Z,3248.00
2019-04-05T09:36:25.463Z,3224.00
2019-04-05T09:37:24.644Z,3328.00
2019-04-05T09:38:24.633Z,3392.00
2019-04-05T09:39:24.621Z,3472.00
2019-04-05T09:40:24.622Z,3548.00
2019-04-05T09:41:24.614Z,3544.00
2019-04-05T09:42:24.613Z,3536.00
2019-04-05T09:43:24.632Z,3560.00
2019-04-05T09:44:24.574Z,3564.00
2019-04-05T09:45:24.553Z,3608.00
2019-04-05T09:46:24.537Z,3608.00
2019-04-05T09:47:24.531Z,3624.00
2019-04-05T09:48:24.734Z,3640.00
2019-04-05T09:49:36.109Z,3616.00
2019-04-05T09:50:24.513Z,3544.00
2019-04-05T09:51:24.488Z,3524.00
2019-04-05T09:52:24.490Z,3484.00
2019-04-05T09:53:24.466Z,3512.00
2019-04-05T09:54:24.496Z,3620.00
2019-04-05T09:55:24.446Z,3728.00
2019-04-05T09:56:24.435Z,3804.00
2019-04-05T09:57:24.434Z,3840.00
2019-04-05T09:58:24.417Z,3872.00
2019-04-05T09:59:24.395Z,3908.00
2019-04-05T10:00:24.435Z,3948.00
2019-04-05T10:01:24.421Z,3976.00
2019-04-05T10:02:24.367Z,3988.00
2019-04-05T10:03:24.359Z,3996.00
2019-04-05T10:04:24.355Z,3960.00
2019-04-05T10:05:24.336Z,3968.00
2019-04-05T10:06:24.365Z,3948.00
2019-04-05T10:07:24.314Z,3928.00
2019-04-05T10:08:24.298Z,3924.00
2019-04-05T10:09:24.285Z,3928.00
2019-04-05T10:10:24.304Z,3900.00
2019-04-05T10:11:24.271Z,3900.00
2019-04-05T10:12:24.275Z,3908.00
2019-04-05T10:13:24.912Z,3900.00
2019-04-05T10:14:24.241Z,3884.00
2019-04-05T10:15:24.216Z,3888.00
2019-04-05T10:16:24.214Z,3912.00
2019-04-05T10:17:24.239Z,3880.00
2019-04-05T10:18:24.188Z,3804.00
2019-04-05T10:19:24.178Z,3904.00
2019-04-05T10:21:23.155Z,3932.00
2019-04-05T10:22:24.147Z,3936.00
2019-04-05T10:23:24.162Z,3936.00
2019-04-05T10:24:24.911Z,3916.00
2019-04-05T10:25:24.118Z,3908.00
2019-04-05T10:26:24.112Z,3876.00
2019-04-05T10:27:24.094Z,3880.00
2019-04-05T10:28:24.081Z,3872.00
2019-04-05T10:29:24.118Z,3868.00
2019-04-05T10:30:24.058Z,3876.00
2019-04-05T10:31:24.052Z,3844.00
2019-04-05T10:32:24.047Z,3828.00
2019-04-05T10:33:24.070Z,3804.00
2019-04-05T10:34:24.008Z,3700.00
2019-04-05T10:35:24.045Z,3632.00
2019-04-05T10:36:24.036Z,3616.00
2019-04-05T10:37:23.985Z,3620.00
2019-04-05T10:38:23.967Z,3604.00
2019-04-05T10:39:23.965Z,3572.00
2019-04-05T10:40:23.944Z,3528.00
2019-04-05T10:41:23.973Z,3488.00
2019-04-05T10:42:23.969Z,3508.00
2019-04-05T10:43:23.916Z,3520.00
2019-04-05T10:44:23.903Z,3492.00
2019-04-05T10:45:23.905Z,3472.00
2019-04-05T10:46:23.875Z,3496.00
2019-04-05T10:47:23.951Z,3476.00
2019-04-05T10:48:23.860Z,3468.00
2019-04-05T10:49:24.404Z,3428.00
2019-04-05T10:50:26.413Z,3408.00
2019-04-05T10:51:26.405Z,3436.00
2019-04-05T10:52:23.885Z,3460.00
2019-04-05T10:53:23.810Z,3456.00
2019-04-05T10:54:24.406Z,3416.00
2019-04-05T10:55:23.781Z,3400.00
2019-04-05T10:56:23.773Z,3388.00
2019-04-05T10:57:23.757Z,3388.00
2019-04-05T10:58:23.778Z,3400.00
2019-04-05T11:01:22.709Z,3436.00
2019-04-05T11:02:24.401Z,3436.00
2019-04-05T11:03:26.438Z,3428.00
2019-04-05T11:04:23.712Z,3460.00
2019-04-05T11:05:23.703Z,3468.00
2019-04-05T11:06:23.661Z,3448.00
2019-04-05T11:07:23.651Z,3468.00
2019-04-05T11:08:23.639Z,3488.00
2019-04-05T11:09:23.628Z,3496.00
2019-04-05T11:10:26.406Z,3508.00
2019-04-05T11:11:23.615Z,3500.00
2019-04-05T11:12:23.595Z,3548.00
2019-04-05T11:13:23.586Z,3584.00
2019-04-05T11:14:23.573Z,3616.00
2019-04-05T11:15:25.467Z,3596.00
2019-04-05T11:16:23.558Z,3540.00
2019-04-05T11:17:24.399Z,3536.00
2019-04-05T11:18:23.534Z,3556.00
2019-04-05T11:19:23.530Z,3588.00
2019-04-05T11:20:26.397Z,3620.00
2019-04-05T11:21:23.498Z,3644.00
2019-04-05T11:22:23.548Z,3652.00
2019-04-05T11:23:23.506Z,3640.00
2019-04-05T11:24:23.463Z,3656.00
2019-04-05T11:25:23.454Z,3564.00
2019-04-05T11:26:23.445Z,3468.00
2019-04-05T11:27:23.431Z,3244.00
2019-04-05T11:28:23.423Z,2924.00
2019-04-05T11:29:23.431Z,3108.00
2019-04-05T11:30:23.401Z,3580.00
2019-04-05T11:31:23.397Z,3640.00
2019-04-05T11:32:23.379Z,3624.00
2019-04-05T11:33:23.361Z,3620.00
2019-04-05T11:34:23.437Z,3612.00
2019-04-05T11:35:23.350Z,3624.00
2019-04-05T11:36:25.899Z,3600.00
2019-04-05T11:37:23.319Z,3628.00
2019-04-05T11:38:25.903Z,3712.00
2019-04-05T11:39:23.301Z,3728.00
2019-04-05T11:40:24.219Z,3708.00
2019-04-05T11:41:23.307Z,3688.00
2019-04-05T11:42:25.895Z,3724.00
2019-04-05T11:43:26.232Z,3720.00
2019-04-05T11:44:23.250Z,3580.00
2019-04-05T11:45:23.230Z,3736.00
2019-04-05T11:46:23.463Z,3328.00
2019-04-05T11:47:23.215Z,3104.00
2019-04-05T11:48:23.202Z,3008.00
2019-04-05T11:49:23.185Z,3440.00
2019-04-05T11:50:33.920Z,3816.00
2019-04-05T11:51:23.171Z,3888.00
2019-04-05T11:52:23.180Z,3832.00
2019-04-05T11:53:23.139Z,3892.00
2019-04-05T11:54:23.136Z,3660.00
2019-04-05T11:55:23.125Z,3216.00
2019-04-05T11:56:23.109Z,3136.00
2019-04-05T11:57:23.100Z,3044.00
2019-04-05T11:58:23.120Z,3096.00
2019-04-05T11:59:23.077Z,3116.00
2019-04-05T12:00:23.929Z,4204.00
2019-04-05T12:01:23.666Z,4452.00
2019-04-05T12:02:23.053Z,4028.00
2019-04-05T12:03:23.028Z,3860.00
2019-04-05T12:04:23.020Z,5264.00
2019-04-05T12:05:26.850Z,5924.00
2019-04-05T12:06:22.997Z,6584.00
2019-04-05T12:07:26.281Z,6392.00
2019-04-05T12:08:22.984Z,5632.00
2019-04-05T12:09:22.971Z,6008.00
2019-04-05T12:10:22.959Z,6048.00
2019-04-05T12:11:23.903Z,6316.00
2019-04-05T12:12:25.504Z,6032.00
2019-04-05T12:13:23.461Z,6508.00
2019-04-05T12:14:30.022Z,7620.00
2019-04-05T12:15:22.937Z,7728.00
2019-04-05T12:16:22.894Z,7296.00
2019-04-05T12:17:22.877Z,7096.00
2019-04-05T12:18:22.882Z,7616.00
2019-04-05T12:19:22.859Z,6788.00
2019-04-05T12:20:22.858Z,6704.00
2019-04-05T12:21:22.874Z,6768.00
2019-04-05T12:22:22.828Z,6164.00
2019-04-05T12:23:22.808Z,6008.00
2019-04-05T12:24:22.807Z,6084.00
2019-04-05T12:25:22.824Z,6812.00
2019-04-05T12:26:22.781Z,7432.00
2019-04-05T12:27:22.787Z,6656.00
2019-04-05T12:28:22.764Z,5344.00
2019-04-05T12:29:22.748Z,4760.00
2019-04-05T12:30:22.730Z,4672.00
2019-04-05T12:31:22.753Z,5476.00
2019-04-05T12:32:33.038Z,6148.00
2019-04-05T12:33:22.721Z,7300.00
2019-04-05T12:34:22.697Z,6884.00
2019-04-05T12:35:22.680Z,6080.00
2019-04-05T12:36:22.790Z,5728.00
2019-04-05T12:37:22.664Z,5208.00
2019-04-05T12:38:28.342Z,4940.00
2019-04-05T12:39:22.672Z,4520.00
2019-04-05T12:40:22.629Z,4292.00
2019-04-05T12:41:22.631Z,4096.00